createdAt,value
2023-04-11T00:02:08.766Z,20.27
2023-04-11T00:04:39.264Z,22.50
2023-04-11T00:07:09.341Z,28.50
2023-04-11T00:09:38.752Z,20.80
2023-04-11T00:12:06.013Z,24.03
2023-04-11T00:14:34.426Z,20.53
2023-04-11T00:17:01.907Z,20.37
2023-04-11T00:19:33.477Z,20.30
2023-04-11T00:22:01.524Z,18.77
2023-04-11T00:24:28.299Z,22.50
2023-04-11T00:26:56.744Z,21.53
2023-04-11T00:29:28.244Z,18.83
2023-04-11T00:31:56.778Z,22.23
2023-04-11T00:34:24.010Z,20.57
2023-04-11T00:36:51.224Z,20.33
2023-04-11T00:39:22.774Z,23.10
2023-04-11T00:41:49.963Z,21.07
2023-04-11T00:44:17.139Z,22.93
2023-04-11T00:46:46.196Z,22.33
2023-04-11T00:49:13.475Z,28.33
2023-04-11T00:51:40.335Z,22.30
2023-04-11T00:54:10.405Z,24.50
2023-04-11T00:56:40.715Z,23.10
2023-04-11T00:59:09.701Z,27.73
2023-04-11T01:01:38.426Z,30.17
2023-04-11T01:04:05.623Z,25.17
2023-04-11T01:06:33.705Z,24.63
2023-04-11T01:09:00.951Z,28.87
2023-04-11T01:11:28.146Z,29.57
2023-04-11T01:13:55.505Z,28.87
2023-04-11T01:16:22.782Z,29.37
2023-04-11T01:18:50.128Z,27.30
2023-04-11T01:21:20.186Z,30.93
2023-04-11T01:23:48.933Z,28.90
2023-04-11T01:26:16.293Z,27.53
2023-04-11T01:28:43.458Z,27.10
2023-04-11T01:31:10.718Z,26.60
2023-04-11T01:33:40.559Z,29.07
2023-04-11T01:36:09.937Z,28.87
2023-04-11T01:38:36.789Z,25.33
2023-04-11T01:41:05.932Z,29.40
2023-04-11T01:43:33.145Z,27.40
2023-04-11T01:45:59.919Z,31.87
2023-04-11T01:48:27.171Z,32.47
2023-04-11T01:50:55.970Z,29.33
2023-04-11T01:53:22.762Z,27.17
2023-04-11T01:55:49.933Z,28.77
2023-04-11T01:58:23.852Z,29.60
2023-04-11T02:00:51.198Z,26.33
2023-04-11T02:03:20.991Z,30.37
2023-04-11T02:05:50.970Z,33.00
2023-04-11T02:08:18.192Z,30.80
2023-04-11T02:10:44.986Z,28.33
2023-04-11T02:13:12.166Z,31.67
2023-04-11T02:15:41.598Z,30.30
2023-04-11T02:18:09.514Z,28.07
2023-04-11T02:20:42.266Z,31.33
2023-04-11T02:23:12.754Z,32.60
2023-04-11T02:25:40.096Z,26.00
2023-04-11T02:28:08.229Z,26.80
2023-04-11T02:30:35.945Z,24.63
2023-04-11T02:33:03.243Z,29.33
2023-04-11T02:35:32.279Z,28.17
2023-04-11T02:37:59.327Z,26.13
2023-04-11T02:40:28.732Z,23.80
2023-04-11T02:43:01.192Z,31.47
2023-04-11T02:45:27.956Z,28.50
2023-04-11T02:47:55.202Z,26.10
2023-04-11T02:50:22.429Z,31.20
2023-04-11T02:52:49.666Z,27.57
2023-04-11T02:55:16.423Z,30.10
2023-04-11T02:57:43.574Z,25.93
2023-04-11T03:00:13.900Z,26.37
2023-04-11T03:02:41.827Z,27.77
2023-04-11T03:05:09.266Z,28.97
2023-04-11T03:07:38.541Z,28.50
2023-04-11T03:10:05.907Z,29.13
2023-04-11T03:12:33.068Z,26.47
2023-04-11T03:15:00.247Z,26.33
2023-04-11T03:17:29.920Z,24.77
2023-04-11T03:19:56.772Z,26.27
2023-04-11T03:22:26.532Z,30.00
2023-04-11T03:24:53.705Z,24.83
2023-04-11T03:27:22.685Z,27.80
2023-04-11T03:29:49.821Z,27.37
2023-04-11T03:32:17.017Z,25.43
2023-04-11T03:34:44.196Z,24.00
2023-04-11T03:37:11.353Z,23.17
2023-04-11T03:42:05.373Z,26.30
2023-04-11T03:44:32.105Z,25.90
2023-04-11T03:47:01.533Z,23.87
2023-04-11T03:49:30.724Z,24.07
2023-04-11T03:51:57.968Z,22.87
2023-04-11T03:54:27.160Z,26.53
2023-04-11T03:56:57.247Z,22.80
2023-04-11T03:59:24.427Z,24.73
2023-04-11T04:01:53.461Z,24.00
2023-04-11T04:04:20.525Z,27.37
2023-04-11T04:06:50.438Z,22.53
2023-04-11T04:09:19.403Z,27.57
2023-04-11T04:11:46.568Z,25.63
2023-04-11T04:14:13.700Z,24.47
2023-04-11T04:16:40.668Z,28.53
2023-04-11T04:19:07.919Z,24.47
2023-04-11T04:21:38.087Z,24.63
2023-04-11T04:24:05.232Z,25.23
2023-04-11T04:26:32.074Z,21.73
2023-04-11T04:29:06.507Z,23.60
2023-04-11T04:31:34.040Z,22.80
2023-04-11T04:34:08.707Z,21.40
2023-04-11T04:36:49.302Z,23.03
2023-04-11T04:39:19.604Z,23.07
2023-04-11T04:41:49.657Z,24.07
2023-04-11T04:44:18.953Z,26.77
2023-04-11T04:46:46.112Z,23.13
2023-04-11T04:49:13.314Z,28.13
2023-04-11T04:51:40.652Z,22.13
2023-04-11T04:54:09.968Z,21.53
2023-04-11T04:56:37.142Z,22.50
2023-04-11T04:59:04.477Z,25.37
2023-04-11T05:01:33.060Z,25.77
2023-04-11T05:04:01.364Z,29.00
2023-04-11T05:06:29.403Z,28.70
2023-04-11T05:08:57.474Z,26.60
2023-04-11T05:11:24.785Z,23.57
2023-04-11T05:13:51.969Z,25.60
2023-04-11T05:16:19.365Z,30.80
2023-04-11T05:18:46.702Z,30.87
2023-04-11T05:21:14.093Z,23.13
2023-04-11T05:23:43.438Z,23.13
2023-04-11T05:26:10.903Z,26.70
2023-04-11T05:28:38.095Z,29.23
2023-04-11T05:31:12.438Z,28.90
2023-04-11T05:33:42.229Z,29.07
2023-04-11T05:36:13.946Z,27.53
2023-04-11T05:38:46.832Z,29.67
2023-04-11T05:41:16.222Z,28.53
2023-04-11T05:43:43.479Z,28.50
2023-04-11T05:46:10.758Z,25.03
2023-04-11T05:48:38.248Z,26.33
2023-04-11T05:51:07.517Z,27.37
2023-04-11T05:53:34.288Z,22.03
2023-04-11T05:56:01.482Z,26.47
2023-04-11T05:58:31.009Z,25.27
2023-04-11T06:00:59.884Z,24.43
2023-04-11T06:03:27.427Z,22.87
2023-04-11T06:05:54.392Z,26.13
2023-04-11T06:08:21.641Z,22.43
2023-04-11T06:10:48.805Z,24.70
2023-04-11T06:13:16.060Z,25.50
2023-04-11T06:15:43.255Z,28.23
2023-04-11T06:18:10.101Z,24.87
2023-04-11T06:20:37.316Z,22.90
2023-04-11T06:23:04.241Z,23.53
2023-04-11T06:25:33.570Z,23.70
2023-04-11T06:28:00.777Z,18.27
2023-04-11T06:30:28.021Z,21.20
2023-04-11T06:32:57.315Z,19.77
2023-04-11T06:35:26.988Z,20.53
2023-04-11T06:37:54.184Z,16.73
2023-04-11T06:40:23.129Z,26.80
2023-04-11T06:42:50.318Z,19.33
2023-04-11T06:45:24.124Z,21.83
2023-04-11T06:47:51.345Z,14.63
2023-04-11T06:50:18.292Z,17.20
2023-04-11T06:52:45.606Z,15.70
2023-04-11T06:55:14.511Z,19.73
2023-04-11T06:57:42.086Z,16.10
2023-04-11T07:00:09.677Z,14.33
2023-04-11T07:02:36.655Z,16.33
2023-04-11T07:05:07.061Z,15.87
2023-04-11T07:07:33.805Z,13.40
2023-04-11T07:10:00.608Z,14.60
2023-04-11T07:12:27.371Z,13.87
2023-04-11T07:14:54.178Z,14.40
2023-04-11T07:17:21.386Z,16.83
2023-04-11T07:19:48.605Z,14.63
2023-04-11T07:22:15.806Z,16.57
2023-04-11T07:24:43.635Z,14.70
2023-04-11T07:27:14.001Z,13.63
2023-04-11T07:29:41.159Z,13.80
2023-04-11T07:32:07.942Z,14.33
2023-04-11T07:34:34.700Z,14.97
2023-04-11T07:37:01.968Z,13.37
2023-04-11T07:39:28.775Z,11.77
2023-04-11T07:42:00.188Z,11.30
2023-04-11T07:44:27.374Z,12.67
2023-04-11T07:46:54.591Z,12.03
2023-04-11T07:49:21.920Z,13.60
2023-04-11T07:51:50.881Z,13.23
2023-04-11T07:54:18.039Z,12.57
2023-04-11T07:56:44.972Z,11.03
2023-04-11T07:59:15.827Z,8.90
2023-04-11T08:01:43.083Z,10.13
2023-04-11T08:04:10.177Z,12.27
2023-04-11T08:06:39.572Z,12.67
2023-04-11T08:09:09.262Z,14.43
2023-04-11T08:11:36.500Z,11.90
2023-04-11T08:14:03.319Z,13.23
2023-04-11T08:16:30.114Z,14.50
2023-04-11T08:18:59.145Z,12.07
2023-04-11T08:21:26.330Z,16.50
2023-04-11T08:23:53.592Z,14.77
2023-04-11T08:26:21.222Z,13.30
2023-04-11T08:28:50.304Z,10.00
2023-04-11T08:31:17.944Z,8.13
2023-04-11T08:33:44.937Z,9.33
2023-04-11T08:36:12.262Z,10.80
2023-04-11T08:38:39.794Z,8.27
2023-04-11T08:41:06.953Z,7.03
2023-04-11T08:43:36.890Z,8.47
2023-04-11T08:46:04.211Z,8.00
2023-04-11T08:48:32.404Z,7.03
2023-04-11T08:51:01.453Z,7.13
2023-04-11T08:53:28.742Z,8.60
2023-04-11T08:55:58.894Z,6.50
2023-04-11T08:58:25.764Z,6.47
2023-04-11T09:00:52.916Z,6.47
2023-04-11T09:03:20.304Z,10.87
2023-04-11T09:05:47.572Z,8.13
2023-04-11T09:08:17.453Z,5.60
2023-04-11T09:10:45.611Z,6.67
2023-04-11T09:13:26.459Z,6.40
2023-04-11T09:16:16.320Z,8.07
2023-04-11T09:18:44.526Z,5.43
2023-04-11T09:21:17.393Z,8.33
2023-04-11T09:23:44.609Z,5.27
2023-04-11T09:26:24.288Z,5.43
2023-04-11T09:28:54.281Z,7.23
2023-04-11T09:31:24.156Z,5.23
2023-04-11T09:33:58.689Z,5.50
2023-04-11T09:36:27.279Z,6.83
2023-04-11T09:38:54.216Z,5.20
2023-04-11T09:41:34.509Z,7.97
2023-04-11T09:44:01.525Z,4.10
2023-04-11T09:46:28.390Z,5.67
2023-04-11T09:48:57.796Z,3.90
2023-04-11T09:51:35.919Z,4.57
2023-04-11T09:54:04.307Z,5.33
2023-04-11T09:56:34.083Z,3.90
2023-04-11T09:59:04.073Z,5.27
2023-04-11T10:01:31.088Z,4.97
2023-04-11T10:04:01.355Z,9.83
2023-04-11T10:06:51.226Z,7.10
2023-04-11T10:09:18.437Z,6.90
2023-04-11T10:11:45.460Z,6.60
2023-04-11T10:14:39.852Z,8.57
2023-04-11T10:17:24.298Z,7.93
2023-04-11T10:19:57.691Z,6.83
2023-04-11T10:22:43.336Z,6.77
2023-04-11T10:25:22.102Z,6.37
2023-04-11T10:27:50.195Z,8.30
2023-04-11T10:30:19.670Z,6.57
2023-04-11T10:33:11.872Z,6.40
2023-04-11T10:36:05.981Z,7.20
2023-04-11T10:38:43.343Z,6.90
2023-04-11T10:41:33.838Z,11.80
2023-04-11T10:44:12.631Z,6.67
2023-04-11T10:46:54.043Z,6.50
2023-04-11T10:49:38.313Z,6.67
2023-04-11T10:52:21.832Z,9.37
2023-04-11T10:54:50.180Z,7.10
2023-04-11T10:57:17.580Z,6.13
2023-04-11T10:59:44.351Z,6.03
2023-04-11T11:02:13.437Z,7.30
2023-04-11T11:04:43.191Z,4.47
2023-04-11T11:07:17.063Z,6.90
2023-04-11T11:09:51.387Z,6.17
2023-04-11T11:12:18.353Z,6.17
2023-04-11T11:14:46.204Z,5.07
2023-04-11T11:17:13.884Z,5.20
2023-04-11T11:19:46.978Z,6.50
2023-04-11T11:22:17.649Z,6.03
2023-04-11T11:24:44.898Z,4.07
2023-04-11T11:27:24.123Z,5.37
2023-04-11T11:29:51.389Z,6.93
2023-04-11T11:32:28.185Z,5.60
2023-04-11T11:34:57.637Z,5.73
2023-04-11T11:37:27.149Z,6.83
2023-04-11T11:39:57.061Z,13.53
2023-04-11T11:42:23.793Z,7.53
2023-04-11T11:44:51.119Z,6.30
2023-04-11T11:47:18.370Z,5.00
2023-04-11T11:49:56.623Z,6.87
2023-04-11T11:52:37.045Z,7.10
2023-04-11T11:55:08.079Z,8.77
2023-04-11T11:57:46.007Z,7.73
2023-04-11T12:00:13.928Z,5.03
2023-04-11T12:02:43.066Z,5.80
2023-04-11T12:05:11.265Z,5.70
2023-04-11T12:07:40.958Z,8.37
2023-04-11T12:10:14.341Z,7.93
2023-04-11T12:12:53.651Z,7.97
2023-04-11T12:15:22.459Z,5.60
2023-04-11T12:17:55.202Z,6.03
2023-04-11T12:20:23.406Z,6.53
2023-04-11T12:22:52.129Z,9.00
2023-04-11T12:25:20.581Z,7.47
2023-04-11T12:27:48.344Z,8.77
2023-04-11T12:30:17.362Z,7.37
2023-04-11T12:32:44.846Z,5.80
2023-04-11T12:35:12.026Z,6.40
2023-04-11T12:37:41.376Z,7.13
2023-04-11T12:40:12.650Z,8.70
2023-04-11T12:42:53.227Z,6.97
2023-04-11T12:45:22.991Z,8.70
2023-04-11T12:47:50.307Z,8.10
2023-04-11T12:50:19.772Z,6.40
2023-04-11T12:52:48.754Z,7.27
2023-04-11T12:55:15.579Z,8.33
2023-04-11T12:57:42.504Z,7.97
2023-04-11T13:00:13.045Z,9.90
2023-04-11T13:02:44.929Z,8.03
2023-04-11T13:05:19.859Z,14.47
2023-04-11T13:07:46.792Z,9.53
2023-04-11T13:10:16.475Z,7.87
2023-04-11T13:12:46.606Z,10.00
2023-04-11T13:15:14.710Z,10.43
2023-04-11T13:17:41.953Z,8.63
2023-04-11T13:20:12.975Z,11.03
2023-04-11T13:22:41.112Z,8.17
2023-04-11T13:25:10.730Z,8.20
2023-04-11T13:27:39.579Z,8.40
2023-04-11T13:30:08.540Z,9.27
2023-04-11T13:32:35.408Z,9.13
2023-04-11T13:35:04.033Z,7.53
2023-04-11T13:37:31.242Z,7.27
2023-04-11T13:39:58.432Z,7.37
2023-04-11T13:42:26.115Z,7.57
2023-04-11T13:44:55.860Z,7.70
2023-04-11T13:47:22.635Z,6.83
2023-04-11T13:49:53.795Z,9.17
2023-04-11T13:52:22.165Z,7.87
2023-04-11T13:54:48.862Z,8.83
2023-04-11T13:57:17.907Z,7.67
2023-04-11T13:59:46.793Z,14.33
2023-04-11T14:02:14.063Z,11.20
2023-04-11T14:04:43.928Z,8.47
2023-04-11T14:07:10.826Z,8.67
2023-04-11T14:09:37.740Z,8.87
2023-04-11T14:12:06.704Z,8.70
2023-04-11T14:14:33.737Z,6.90
2023-04-11T14:17:01.072Z,7.37
2023-04-11T14:19:32.677Z,7.97
2023-04-11T14:22:01.665Z,7.87
2023-04-11T14:24:28.889Z,11.63
2023-04-11T14:26:56.820Z,7.43
2023-04-11T14:29:24.065Z,8.27
2023-04-11T14:31:51.309Z,6.50
2023-04-11T14:34:18.712Z,8.43
2023-04-11T14:36:45.544Z,7.47
2023-04-11T14:39:12.413Z,6.27
2023-04-11T14:41:39.620Z,12.20
2023-04-11T14:44:06.554Z,7.13
2023-04-11T14:46:34.832Z,6.53
2023-04-11T14:49:02.119Z,5.93
2023-04-11T14:51:29.831Z,10.37
2023-04-11T14:54:01.353Z,7.47
2023-04-11T14:56:28.144Z,6.13
2023-04-11T14:58:55.608Z,6.20
2023-04-11T15:01:25.108Z,7.13
2023-04-11T15:03:52.851Z,11.93
2023-04-11T15:06:22.406Z,8.87
2023-04-11T15:08:50.396Z,10.67
2023-04-11T15:11:17.751Z,9.77
2023-04-11T15:13:47.937Z,12.73
2023-04-11T15:16:19.315Z,10.50
2023-04-11T15:18:47.895Z,6.33
2023-04-11T15:21:17.348Z,8.57
2023-04-11T15:23:46.702Z,8.00
2023-04-11T15:26:13.541Z,6.80
2023-04-11T15:28:43.769Z,6.43
2023-04-11T15:31:12.986Z,10.57
2023-04-11T15:33:39.912Z,7.47
2023-04-11T15:36:09.390Z,6.63
2023-04-11T15:38:37.008Z,6.83
2023-04-11T15:41:04.435Z,7.23
2023-04-11T15:43:32.228Z,11.27
2023-04-11T15:45:59.453Z,7.23
2023-04-11T15:48:26.663Z,8.07
2023-04-11T15:50:53.908Z,6.83
2023-04-11T15:53:21.181Z,7.27
2023-04-11T15:55:49.341Z,8.70
2023-04-11T15:58:16.606Z,7.40
2023-04-11T16:00:43.876Z,6.43
2023-04-11T16:03:11.374Z,7.47
2023-04-11T16:05:40.966Z,7.70
2023-04-11T16:08:08.362Z,8.40
2023-04-11T16:10:35.260Z,9.93
2023-04-11T16:13:02.723Z,6.33
2023-04-11T16:15:30.000Z,7.67
2023-04-11T16:17:56.942Z,8.10
2023-04-11T16:20:24.336Z,10.57
2023-04-11T16:22:53.670Z,8.67
2023-04-11T16:25:21.605Z,8.50
2023-04-11T16:27:51.127Z,11.33
2023-04-11T16:30:18.349Z,8.17
2023-04-11T16:32:45.238Z,8.47
2023-04-11T16:35:12.586Z,8.73
2023-04-11T16:37:39.409Z,8.83
2023-04-11T16:40:15.752Z,10.80
2023-04-11T16:42:44.779Z,7.90
2023-04-11T16:45:16.507Z,9.67
2023-04-11T16:47:43.774Z,9.17
2023-04-11T16:50:13.047Z,10.60
2023-04-11T16:52:40.501Z,8.10
2023-04-11T16:55:09.841Z,8.67
2023-04-11T16:57:41.544Z,6.70
2023-04-11T17:00:11.570Z,11.87
2023-04-11T17:02:38.891Z,27.80
2023-04-11T17:05:06.366Z,11.63
2023-04-11T17:07:35.599Z,9.17
2023-04-11T17:10:05.470Z,9.50
2023-04-11T17:12:34.618Z,8.83
2023-04-11T17:15:01.791Z,9.83
2023-04-11T17:17:29.090Z,12.17
2023-04-11T17:19:55.969Z,9.60
2023-04-11T17:22:23.428Z,13.13
2023-04-11T17:24:50.987Z,8.57
2023-04-11T17:27:17.733Z,8.23
2023-04-11T17:29:47.337Z,10.83
2023-04-11T17:32:14.109Z,11.40
2023-04-11T17:34:41.277Z,9.87
2023-04-11T17:37:08.452Z,9.13
2023-04-11T17:39:38.138Z,9.47
2023-04-11T17:42:07.758Z,13.93
2023-04-11T17:44:37.032Z,12.83
2023-04-11T17:47:03.874Z,12.70
2023-04-11T17:49:31.234Z,18.53
2023-04-11T17:51:59.651Z,11.50
2023-04-11T17:55:23.085Z,10.53
2023-04-11T17:57:53.858Z,14.07
2023-04-11T18:00:26.105Z,13.67
2023-04-11T18:02:54.845Z,8.97
2023-04-11T18:05:28.343Z,12.77
2023-04-11T18:07:57.405Z,13.07
2023-04-11T18:10:24.900Z,11.73
2023-04-11T18:12:52.580Z,12.23
2023-04-11T18:15:22.687Z,13.17
2023-04-11T18:17:49.980Z,14.93
2023-04-11T18:20:21.610Z,15.43
2023-04-11T18:22:54.582Z,13.20
2023-04-11T18:25:21.669Z,12.97
2023-04-11T18:27:48.491Z,14.33
2023-04-11T18:30:15.907Z,14.67
2023-04-11T18:32:49.499Z,14.00
2023-04-11T18:35:17.560Z,14.37
2023-04-11T18:37:44.614Z,15.30
2023-04-11T18:40:14.613Z,16.43
2023-04-11T18:42:42.770Z,15.00
2023-04-11T18:45:12.237Z,15.50
2023-04-11T18:47:40.001Z,17.70
2023-04-11T18:50:07.571Z,15.47
2023-04-11T18:52:36.594Z,13.47
2023-04-11T18:55:03.802Z,13.70
2023-04-11T18:57:33.919Z,20.33
2023-04-11T19:00:12.782Z,15.17
2023-04-11T19:02:44.136Z,19.47
2023-04-11T19:05:15.279Z,16.67
2023-04-11T19:07:42.745Z,16.33
2023-04-11T19:10:12.774Z,17.67
2023-04-11T19:12:40.187Z,20.70
2023-04-11T19:15:08.092Z,19.20
2023-04-11T19:17:38.687Z,19.57
2023-04-11T19:20:13.302Z,20.07
2023-04-11T19:22:42.905Z,21.73
2023-04-11T19:25:13.150Z,18.07
2023-04-11T19:27:41.992Z,20.73
2023-04-11T19:30:10.307Z,18.90
2023-04-11T19:32:47.289Z,18.97
2023-04-11T19:35:14.399Z,17.43
2023-04-11T19:37:41.806Z,17.57
2023-04-11T19:40:13.604Z,21.60
2023-04-11T19:42:41.644Z,20.00
2023-04-11T19:45:11.904Z,21.23
2023-04-11T19:47:41.284Z,20.27
2023-04-11T19:50:14.342Z,21.77
2023-04-11T19:52:41.729Z,20.47
2023-04-11T19:55:11.354Z,22.10
2023-04-11T19:57:39.028Z,24.83
2023-04-11T20:00:12.353Z,23.30
2023-04-11T20:02:47.106Z,32.67
2023-04-11T20:05:21.785Z,22.63
2023-04-11T20:07:49.102Z,23.73
2023-04-11T20:10:16.327Z,22.57
2023-04-11T20:12:45.568Z,26.13
2023-04-11T20:15:13.004Z,23.37
2023-04-11T20:17:39.968Z,24.67
2023-04-11T20:20:08.891Z,24.30
2023-04-11T20:22:38.301Z,22.70
2023-04-11T20:25:11.665Z,22.33
2023-04-11T20:27:39.110Z,21.70
2023-04-11T20:30:08.651Z,23.03
2023-04-11T20:32:35.463Z,24.80
2023-04-11T20:35:02.730Z,22.30
2023-04-11T20:37:30.999Z,21.60
2023-04-11T20:39:58.571Z,22.83
2023-04-11T20:42:25.882Z,24.23
2023-04-11T20:44:57.809Z,23.93
2023-04-11T20:47:24.858Z,20.57
2023-04-11T20:49:55.646Z,24.13
2023-04-11T20:52:24.884Z,20.53
2023-04-11T20:54:56.323Z,20.63
2023-04-11T20:57:23.537Z,22.03
2023-04-11T20:59:55.345Z,24.93
2023-04-11T21:02:22.890Z,24.67
2023-04-11T21:04:52.905Z,20.90
2023-04-11T21:07:20.100Z,27.57
2023-04-11T21:09:47.784Z,23.63
2023-04-11T21:12:14.765Z,21.00
2023-04-11T21:14:46.138Z,23.43
2023-04-11T21:17:15.596Z,23.83
2023-04-11T21:19:42.423Z,24.20
2023-04-11T21:22:12.057Z,22.60
2023-04-11T21:24:38.812Z,22.27
2023-04-11T21:27:05.975Z,22.77
2023-04-11T21:29:33.202Z,23.63
2023-04-11T21:32:04.682Z,30.27
2023-04-11T21:34:31.870Z,28.13
2023-04-11T21:36:58.648Z,33.97
2023-04-11T21:39:25.653Z,30.13
2023-04-11T21:41:55.422Z,31.83
2023-04-11T21:44:24.830Z,32.30
2023-04-11T21:46:51.936Z,28.47
2023-04-11T21:49:19.196Z,28.57
2023-04-11T21:51:48.542Z,32.33
2023-04-11T21:54:16.457Z,31.40
2023-04-11T21:56:46.037Z,30.80
2023-04-11T21:59:15.450Z,29.57
2023-04-11T22:01:44.410Z,29.63
2023-04-11T22:04:13.612Z,31.60
2023-04-11T22:06:46.522Z,28.53
2023-04-11T22:09:15.896Z,34.03
2023-04-11T22:11:44.911Z,26.07
2023-04-11T22:14:16.216Z,30.20
2023-04-11T22:16:49.218Z,27.77
2023-04-11T22:19:19.170Z,29.10
2023-04-11T22:21:55.748Z,25.87
2023-04-11T22:24:31.092Z,28.30
2023-04-11T22:26:58.760Z,29.37
2023-04-11T22:29:30.457Z,26.87
2023-04-11T22:31:59.482Z,25.33
2023-04-11T22:34:31.943Z,25.70
2023-04-11T22:36:59.096Z,24.03
2023-04-11T22:39:25.936Z,27.50
2023-04-11T22:41:53.505Z,25.50
2023-04-11T22:44:20.851Z,30.30
2023-04-11T22:47:07.961Z,25.73
2023-04-11T22:49:42.128Z,26.03
2023-04-11T22:52:09.416Z,24.13
2023-04-11T22:54:36.591Z,23.20
2023-04-11T22:57:03.837Z,24.60
2023-04-11T22:59:32.835Z,25.43
2023-04-11T23:01:59.774Z,25.70
2023-04-11T23:04:27.135Z,26.07
2023-04-11T23:06:54.337Z,30.00
2023-04-11T23:09:21.647Z,26.83
2023-04-11T23:11:49.023Z,24.70
2023-04-11T23:14:22.562Z,25.77
2023-04-11T23:16:49.852Z,24.77
2023-04-11T23:19:18.786Z,27.37
2023-04-11T23:21:49.050Z,26.70
2023-04-11T23:24:17.962Z,27.13
2023-04-11T23:26:44.744Z,26.07
2023-04-11T23:29:13.769Z,24.77
2023-04-11T23:31:44.863Z,25.33
2023-04-11T23:34:11.590Z,25.93
2023-04-11T23:36:38.787Z,25.27
2023-04-11T23:39:05.933Z,24.03
2023-04-11T23:41:38.246Z,21.33
2023-04-11T23:44:05.455Z,26.03
2023-04-11T23:46:34.481Z,23.63
2023-04-11T23:49:01.854Z,27.20
2023-04-11T23:51:29.017Z,25.73
2023-04-11T23:53:56.682Z,23.33
2023-04-11T23:56:23.853Z,22.93
2023-04-11T23:58:52.838Z,24.73
